createdAt,value
2016-04-09T00:00:41.882Z,0
2016-04-09T00:01:41.932Z,0
2016-04-09T00:02:41.967Z,0
2016-04-09T00:03:41.984Z,0
2016-04-09T00:04:42.034Z,0
2016-04-09T00:05:42.052Z,0
2016-04-09T00:06:42.102Z,0
2016-04-09T00:07:42.136Z,0
2016-04-09T00:08:42.170Z,0
2016-04-09T00:09:42.204Z,0
2016-04-09T00:10:42.238Z,0
2016-04-09T00:11:42.303Z,0
2016-04-09T00:12:42.305Z,0
2016-04-09T00:13:42.324Z,0
2016-04-09T00:14:42.358Z,0
2016-04-09T00:15:42.392Z,0
2016-04-09T00:16:42.441Z,0
2016-04-09T00:17:42.475Z,0
2016-04-09T00:18:42.493Z,0
2016-04-09T00:19:42.558Z,0
2016-04-09T00:20:42.577Z,0
2016-04-09T00:21:42.596Z,0
2016-04-09T00:22:42.630Z,0
2016-04-09T00:23:42.663Z,0
2016-04-09T00:24:42.744Z,0
2016-04-09T00:25:42.762Z,0
2016-04-09T00:26:42.765Z,0
2016-04-09T00:27:42.627Z,0
2016-04-09T00:28:42.832Z,0
2016-04-09T00:29:42.867Z,0
2016-04-09T00:30:42.884Z,0
2016-04-09T00:31:42.934Z,0
2016-04-09T00:32:43.000Z,0
2016-04-09T00:33:43.033Z,0
2016-04-09T00:34:43.020Z,0
2016-04-09T00:35:43.055Z,0
2016-04-09T00:36:43.104Z,0
2016-04-09T00:37:43.123Z,0
2016-04-09T00:38:43.156Z,0
2016-04-09T00:39:43.206Z,0
2016-04-09T00:40:43.239Z,0
2016-04-09T00:41:43.274Z,0
2016-04-09T00:42:43.292Z,0
2016-04-09T00:43:43.342Z,0
2016-04-09T00:44:43.376Z,0
2016-04-09T00:45:43.395Z,0
2016-04-09T00:46:43.444Z,0
2016-04-09T00:47:43.478Z,0
2016-04-09T00:48:43.511Z,0
2016-04-09T00:49:43.530Z,0
2016-04-09T00:50:43.564Z,0
2016-04-09T00:51:43.598Z,0
2016-04-09T00:52:43.632Z,0
2016-04-09T00:53:43.649Z,0
2016-04-09T00:54:43.699Z,0
2016-04-09T00:55:43.718Z,0
2016-04-09T00:56:43.751Z,0
2016-04-09T00:57:43.818Z,0
2016-04-09T00:58:43.804Z,0
2016-04-09T00:59:43.838Z,0
2016-04-09T01:00:43.888Z,0
2016-04-09T01:01:43.906Z,0
2016-04-09T01:02:43.956Z,0
2016-04-09T01:03:43.989Z,0
2016-04-09T01:04:44.023Z,0
2016-04-09T01:05:44.073Z,0
2016-04-09T01:06:44.075Z,0
2016-04-09T01:07:43.984Z,0
2016-04-09T01:08:44.158Z,0
2016-04-09T01:09:44.177Z,0
2016-04-09T01:10:44.211Z,0
2016-04-09T01:11:44.245Z,0
2016-04-09T01:12:44.295Z,0
2016-04-09T01:13:44.314Z,0
2016-04-09T01:14:44.347Z,0
2016-04-09T01:15:44.397Z,0
2016-04-09T01:16:44.399Z,0
2016-04-09T01:17:44.449Z,0
2016-04-09T01:18:44.467Z,0
2016-04-09T01:19:44.516Z,0
2016-04-09T01:20:44.552Z,0
2016-04-09T01:21:44.569Z,0
2016-04-09T01:22:44.619Z,0
2016-04-09T01:23:44.638Z,0
2016-04-09T01:24:44.671Z,0
2016-04-09T01:25:44.736Z,0
2016-04-09T01:26:44.723Z,0
2016-04-09T01:27:44.773Z,0
2016-04-09T01:28:44.807Z,0
2016-04-09T01:29:44.825Z,0
2016-04-09T01:30:44.859Z,0
2016-04-09T01:31:44.892Z,0
2016-04-09T01:32:44.926Z,0
2016-04-09T01:33:44.961Z,0
2016-04-09T01:34:44.995Z,0
2016-04-09T01:35:45.029Z,0
2016-04-09T01:36:45.069Z,0
2016-04-09T01:37:45.071Z,0
2016-04-09T01:38:44.965Z,0
2016-04-09T01:39:45.154Z,0
2016-04-09T01:40:45.173Z,0
2016-04-09T01:41:45.223Z,0
2016-04-09T01:42:45.240Z,0
2016-04-09T01:43:45.290Z,0
2016-04-09T01:44:45.308Z,0
2016-04-09T01:45:45.342Z,0
2016-04-09T01:46:45.376Z,0
2016-04-09T01:47:45.411Z,0
2016-04-09T01:48:45.445Z,0
2016-04-09T01:49:45.479Z,0
2016-04-09T01:50:45.512Z,0
2016-04-09T01:51:45.547Z,0
2016-04-09T01:52:45.580Z,0
2016-04-09T01:53:45.614Z,0
2016-04-09T01:54:45.633Z,0
2016-04-09T01:55:45.682Z,0
2016-04-09T01:56:45.700Z,0
2016-04-09T01:57:45.734Z,0
2016-04-09T01:58:45.768Z,0
2016-04-09T01:59:45.786Z,0
2016-04-09T02:00:45.836Z,0
2016-04-09T02:01:45.871Z,0
2016-04-09T02:02:45.904Z,0
2016-04-09T02:03:45.922Z,0
2016-04-09T02:04:45.971Z,0
2016-04-09T02:05:46.006Z,0
2016-04-09T02:06:46.040Z,0
2016-04-09T02:07:46.057Z,0
2016-04-09T02:08:46.092Z,0
2016-04-09T02:09:46.125Z,0
2016-04-09T02:10:46.144Z,0
2016-04-09T02:11:46.193Z,0
2016-04-09T02:12:46.228Z,0
2016-04-09T02:13:46.277Z,0
2016-04-09T02:14:46.296Z,0
2016-04-09T02:15:46.314Z,0
2016-04-09T02:16:46.348Z,0
2016-04-09T02:17:46.226Z,0
2016-04-09T02:18:46.431Z,0
2016-04-09T02:19:46.450Z,0
2016-04-09T02:20:46.514Z,0
2016-04-09T02:21:46.533Z,0
2016-04-09T02:22:46.552Z,0
2016-04-09T02:23:46.570Z,0
2016-04-09T02:24:46.604Z,0
2016-04-09T02:25:46.653Z,0
2016-04-09T02:26:46.656Z,0
2016-04-09T02:27:46.691Z,0
2016-04-09T02:28:46.739Z,0
2016-04-09T02:29:46.774Z,0
2016-04-09T02:30:46.807Z,0
2016-04-09T02:31:46.826Z,0
2016-04-09T02:32:46.874Z,0
2016-04-09T02:33:46.893Z,0
2016-04-09T02:34:46.927Z,0
2016-04-09T02:35:46.961Z,0
2016-04-09T02:36:46.995Z,0
2016-04-09T02:37:47.029Z,0
2016-04-09T02:38:47.048Z,0
2016-04-09T02:39:47.098Z,0
2016-04-09T02:40:47.132Z,0
2016-04-09T02:41:47.149Z,0
2016-04-09T02:42:47.184Z,0
2016-04-09T02:43:47.217Z,0
2016-04-09T02:44:47.236Z,0
2016-04-09T02:45:47.285Z,0
2016-04-09T02:46:47.303Z,0
2016-04-09T02:47:47.337Z,0
2016-04-09T02:48:47.387Z,0
2016-04-09T02:49:47.406Z,0
2016-04-09T02:50:47.283Z,0
2016-04-09T02:51:47.473Z,0
2016-04-09T02:52:47.508Z,0
2016-04-09T02:53:47.541Z,0
2016-04-09T02:54:47.575Z,0
2016-04-09T02:55:47.593Z,0
2016-04-09T02:56:47.627Z,0
2016-04-09T02:57:47.661Z,0
2016-04-09T02:58:47.694Z,0
2016-04-09T02:59:47.730Z,0
2016-04-09T03:00:47.747Z,0
2016-04-09T03:01:47.782Z,0
2016-04-09T03:02:47.815Z,0
2016-04-09T03:03:47.849Z,0
2016-04-09T03:04:47.883Z,0
2016-04-09T03:05:47.901Z,0
2016-04-09T03:06:47.951Z,0
2016-04-09T03:07:47.969Z,0
2016-04-09T03:08:48.018Z,0
2016-04-09T03:09:48.037Z,0
2016-04-09T03:10:48.071Z,0
2016-04-09T03:11:48.198Z,0
2016-04-09T03:12:48.139Z,0
2016-04-09T03:13:48.173Z,0
2016-04-09T03:14:48.207Z,0
2016-04-09T03:15:48.241Z,0
2016-04-09T03:16:48.259Z,0
2016-04-09T03:17:48.309Z,0
2016-04-09T03:18:48.327Z,0
2016-04-09T03:19:48.376Z,0
2016-04-09T03:20:48.395Z,0
2016-04-09T03:21:48.428Z,0
2016-04-09T03:22:48.463Z,0
2016-04-09T03:23:48.511Z,0
2016-04-09T03:24:48.514Z,0
2016-04-09T03:25:48.564Z,0
2016-04-09T03:26:48.599Z,0
2016-04-09T03:27:48.602Z,0
2016-04-09T03:28:48.650Z,0
2016-04-09T03:29:48.669Z,0
2016-04-09T03:30:48.703Z,0
2016-04-09T03:31:48.721Z,0
2016-04-09T03:32:48.786Z,0
2016-04-09T03:33:48.821Z,0
2016-04-09T03:34:48.838Z,0
2016-04-09T03:35:48.874Z,0
2016-04-09T03:36:48.891Z,0
2016-04-09T03:37:48.941Z,0
2016-04-09T03:38:48.991Z,0
2016-04-09T03:39:48.884Z,0
2016-04-09T03:40:49.058Z,0
2016-04-09T03:41:49.076Z,0
2016-04-09T03:42:49.110Z,0
2016-04-09T03:43:49.129Z,0
2016-04-09T03:44:49.147Z,0
2016-04-09T03:45:49.181Z,0
2016-04-09T03:46:49.198Z,0
2016-04-09T03:47:49.248Z,0
2016-04-09T03:48:49.298Z,0
2016-04-09T03:49:49.301Z,0
2016-04-09T03:50:49.335Z,0
2016-04-09T03:51:49.369Z,0
2016-04-09T03:52:49.387Z,0
2016-04-09T03:53:49.421Z,0
2016-04-09T03:54:49.455Z,0
2016-04-09T03:55:49.489Z,0
2016-04-09T03:56:49.522Z,0
2016-04-09T03:57:49.557Z,0
2016-04-09T03:58:49.574Z,0
2016-04-09T03:59:49.608Z,0
2016-04-09T04:00:49.658Z,0
2016-04-09T04:01:49.661Z,0
2016-04-09T04:02:49.727Z,0
2016-04-09T04:03:49.745Z,0
2016-04-09T04:04:49.779Z,0
2016-04-09T04:05:49.797Z,0
2016-04-09T04:06:49.832Z,0
2016-04-09T04:07:49.724Z,0
2016-04-09T04:08:49.899Z,0
2016-04-09T04:09:49.932Z,0
2016-04-09T04:10:49.951Z,0
2016-04-09T04:11:50.032Z,0
2016-04-09T04:12:50.051Z,0
2016-04-09T04:13:50.054Z,0
2016-04-09T04:14:50.087Z,4
2016-04-09T04:15:50.121Z,4
2016-04-09T04:16:50.139Z,0
2016-04-09T04:17:50.189Z,4
2016-04-09T04:18:50.207Z,4
2016-04-09T04:19:50.241Z,0
2016-04-09T04:20:50.275Z,4
2016-04-09T04:21:50.292Z,8
2016-04-09T04:22:50.342Z,8
2016-04-09T04:23:50.361Z,8
2016-04-09T04:24:50.394Z,8
2016-04-09T04:25:50.429Z,8
2016-04-09T04:26:50.463Z,12
2016-04-09T04:27:50.497Z,12
2016-04-09T04:28:50.531Z,16
2016-04-09T04:29:50.550Z,20
2016-04-09T04:30:50.583Z,20
2016-04-09T04:31:50.602Z,24
2016-04-09T04:32:50.651Z,28
2016-04-09T04:33:50.685Z,36
2016-04-09T04:34:50.718Z,40
2016-04-09T04:35:50.737Z,44
2016-04-09T04:36:50.771Z,48
2016-04-09T04:37:50.804Z,52
2016-04-09T04:38:50.839Z,64
2016-04-09T04:39:50.873Z,68
2016-04-09T04:40:50.891Z,76
2016-04-09T04:41:50.941Z,84
2016-04-09T04:42:50.959Z,96
2016-04-09T04:43:51.009Z,104
2016-04-09T04:44:51.026Z,116
2016-04-09T04:45:51.045Z,128
2016-04-09T04:46:51.064Z,136
2016-04-09T04:47:51.112Z,152
2016-04-09T04:48:51.147Z,164
2016-04-09T04:49:51.181Z,176
2016-04-09T04:50:51.215Z,196
2016-04-09T04:51:51.249Z,212
2016-04-09T04:52:51.283Z,228
2016-04-09T04:53:51.301Z,244
2016-04-09T04:54:51.335Z,264
2016-04-09T04:55:51.353Z,284
2016-04-09T04:56:51.387Z,312
2016-04-09T04:57:51.421Z,328
2016-04-09T04:58:51.455Z,356
2016-04-09T04:59:51.489Z,384
2016-04-09T05:00:51.538Z,408
2016-04-09T05:01:51.542Z,436
2016-04-09T05:02:51.607Z,464
2016-04-09T05:03:51.610Z,496
2016-04-09T05:04:51.628Z,528
2016-04-09T05:05:51.661Z,564
2016-04-09T05:06:51.711Z,600
2016-04-09T05:07:51.729Z,636
2016-04-09T05:08:51.763Z,672
2016-04-09T05:09:51.813Z,716
2016-04-09T05:10:51.815Z,752
2016-04-09T05:11:51.881Z,792
2016-04-09T05:12:51.914Z,844
2016-04-09T05:13:51.948Z,888
2016-04-09T05:14:51.967Z,936
2016-04-09T05:15:52.001Z,984
2016-04-09T05:16:52.035Z,1032
2016-04-09T05:17:52.053Z,1076
2016-04-09T05:18:52.087Z,1124
2016-04-09T05:19:52.120Z,1180
2016-04-09T05:20:52.155Z,1232
2016-04-09T05:21:52.173Z,1292
2016-04-09T05:22:52.207Z,1356
2016-04-09T05:23:52.225Z,1420
2016-04-09T05:24:52.260Z,1480
2016-04-09T05:25:52.294Z,1536
2016-04-09T05:26:52.328Z,1604
2016-04-09T05:27:52.362Z,1668
2016-04-09T05:28:52.395Z,1732
2016-04-09T05:29:52.430Z,1796
2016-04-09T05:30:52.432Z,1852
2016-04-09T05:31:52.481Z,1900
2016-04-09T05:32:52.516Z,1960
2016-04-09T05:33:52.549Z,2024
2016-04-09T05:34:52.568Z,2088
2016-04-09T05:35:52.601Z,2152
2016-04-09T05:36:52.635Z,2220
2016-04-09T05:37:52.685Z,2288
2016-04-09T05:38:52.704Z,2360
2016-04-09T05:39:52.738Z,2420
2016-04-09T05:40:52.630Z,2472
2016-04-09T05:41:52.805Z,2520
2016-04-09T05:42:52.823Z,2572
2016-04-09T05:43:52.717Z,2612
2016-04-09T05:44:52.923Z,2668
2016-04-09T05:45:52.925Z,2716
2016-04-09T05:46:52.959Z,2768
2016-04-09T05:47:52.992Z,2816
2016-04-09T05:48:53.026Z,2860
2016-04-09T05:49:53.170Z,2920
2016-04-09T05:50:53.079Z,2980
2016-04-09T05:51:53.128Z,3056
2016-04-09T05:52:53.147Z,3148
2016-04-09T05:53:53.197Z,3200
2016-04-09T05:54:53.215Z,3264
2016-04-09T05:55:53.249Z,3356
2016-04-09T05:56:53.284Z,3424
2016-04-09T05:57:53.161Z,3468
2016-04-09T05:58:53.336Z,3516
2016-04-09T05:59:53.369Z,3600
2016-04-09T06:00:53.403Z,3640
2016-04-09T06:01:53.453Z,3656
2016-04-09T06:02:53.471Z,3708
2016-04-09T06:03:53.489Z,3760
2016-04-09T06:04:53.538Z,3824
2016-04-09T06:05:53.588Z,3892
2016-04-09T06:06:53.607Z,3944
2016-04-09T06:07:53.500Z,3980
2016-04-09T06:08:53.675Z,4080
2016-04-09T06:09:53.693Z,4192
2016-04-09T06:10:53.571Z,4268
2016-04-09T06:11:53.588Z,4384
2016-04-09T06:12:53.795Z,4524
2016-04-09T06:13:53.813Z,4688
2016-04-09T06:14:53.846Z,4768
2016-04-09T06:15:53.866Z,4816
2016-04-09T06:16:53.915Z,4876
2016-04-09T06:17:53.965Z,4924
2016-04-09T06:18:53.999Z,5028
2016-04-09T06:19:54.017Z,5120
2016-04-09T06:20:54.050Z,5392
2016-04-09T06:21:54.084Z,5608
2016-04-09T06:22:54.103Z,5612
2016-04-09T06:23:54.136Z,5944
2016-04-09T06:24:54.170Z,6360
2016-04-09T06:25:54.206Z,6936
2016-04-09T06:26:54.270Z,7536
2016-04-09T06:27:54.257Z,7432
2016-04-09T06:28:54.306Z,7268
2016-04-09T06:29:54.341Z,7240
2016-04-09T06:30:54.375Z,6696
2016-04-09T06:31:54.408Z,6872
2016-04-09T06:32:54.427Z,6676
2016-04-09T06:33:54.819Z,7056
2016-04-09T06:34:54.495Z,7108
2016-04-09T06:35:54.528Z,7544
2016-04-09T06:36:54.578Z,7308
2016-04-09T06:37:54.597Z,7672
2016-04-09T06:38:54.646Z,8548
2016-04-09T06:39:54.664Z,9112
2016-04-09T06:40:54.698Z,8972
2016-04-09T06:41:54.733Z,9664
2016-04-09T06:42:54.766Z,10428
2016-04-09T06:43:54.800Z,9828
2016-04-09T06:44:54.834Z,9116
2016-04-09T06:45:54.852Z,9536
2016-04-09T06:46:54.901Z,9464
2016-04-09T06:47:54.935Z,8764
2016-04-09T06:48:55.079Z,8156
2016-04-09T06:49:55.020Z,8076
2016-04-09T06:50:55.054Z,8700
2016-04-09T06:51:55.056Z,8444
2016-04-09T06:52:55.106Z,8300
2016-04-09T06:53:55.199Z,8152
2016-04-09T06:54:55.260Z,7272
2016-04-09T06:55:55.339Z,7152
2016-04-09T06:56:55.418Z,7272
2016-04-09T06:57:55.496Z,7352
2016-04-09T06:58:55.547Z,8328
2016-04-09T06:59:55.596Z,8384
2016-04-09T07:00:55.647Z,8176
2016-04-09T07:01:55.696Z,7764
2016-04-09T07:02:55.746Z,7688
2016-04-09T07:03:55.833Z,7716
2016-04-09T07:04:55.841Z,7420
2016-04-09T07:05:55.865Z,6932
2016-04-09T07:06:55.921Z,8796
2016-04-09T07:07:55.960Z,9100
2016-04-09T07:08:55.981Z,6872
2016-04-09T07:09:56.017Z,6440
2016-04-09T07:10:56.053Z,6800
2016-04-09T07:11:56.089Z,7140
2016-04-09T07:12:56.141Z,7572
2016-04-09T07:13:56.176Z,8724
2016-04-09T07:14:56.290Z,8708
2016-04-09T07:15:56.246Z,7432
2016-04-09T07:16:56.281Z,6592
2016-04-09T07:17:56.316Z,7820
2016-04-09T07:18:56.537Z,8688
2016-04-09T07:19:56.384Z,9812
2016-04-09T07:20:56.417Z,11048
2016-04-09T07:21:56.452Z,12016
2016-04-09T07:22:56.532Z,11292
2016-04-09T07:23:56.550Z,10176
2016-04-09T07:24:56.537Z,8704
2016-04-09T07:25:56.602Z,7104
2016-04-09T07:26:56.621Z,7776
2016-04-09T07:27:56.686Z,8716
2016-04-09T07:28:56.689Z,7068
2016-04-09T07:29:56.723Z,7032
2016-04-09T07:30:56.757Z,6880
2016-04-09T07:31:56.790Z,7628
2016-04-09T07:32:56.824Z,7492
2016-04-09T07:33:56.749Z,6584
2016-04-09T07:34:56.923Z,7156
2016-04-09T07:35:56.926Z,7768
2016-04-09T07:36:56.976Z,7772
2016-04-09T07:37:57.009Z,7252
2016-04-09T07:38:57.059Z,7600
2016-04-09T07:39:57.093Z,7936
2016-04-09T07:40:57.128Z,8640
2016-04-09T07:41:57.145Z,8368
2016-04-09T07:42:57.195Z,9020
2016-04-09T07:43:57.229Z,7796
2016-04-09T07:44:57.264Z,7944
2016-04-09T07:45:57.282Z,7692
2016-04-09T07:46:57.315Z,9292
2016-04-09T07:47:57.350Z,9992
2016-04-09T07:48:57.164Z,8924
2016-04-09T07:49:57.417Z,9156
2016-04-09T07:50:57.451Z,13256
2016-04-09T07:51:57.516Z,16412
2016-04-09T07:52:57.535Z,13552
2016-04-09T07:53:57.583Z,9812
2016-04-09T07:54:57.618Z,7896
2016-04-09T07:55:57.636Z,8840
2016-04-09T07:56:57.686Z,13336
2016-04-09T07:57:57.735Z,17056
2016-04-09T07:58:57.738Z,18176
2016-04-09T07:59:57.788Z,17512
2016-04-09T08:00:57.821Z,15772
2016-04-09T08:01:57.855Z,14520
2016-04-09T08:02:57.889Z,11764
2016-04-09T08:03:58.126Z,9632
2016-04-09T08:04:57.973Z,11208
2016-04-09T08:05:57.991Z,14196
2016-04-09T08:06:58.041Z,17376
2016-04-09T08:07:58.075Z,15820
2016-04-09T08:08:58.109Z,13932
2016-04-09T08:09:58.143Z,13084
2016-04-09T08:10:58.193Z,13376
2016-04-09T08:11:58.226Z,11692
2016-04-09T08:12:58.245Z,14656
2016-04-09T08:13:58.295Z,21920
2016-04-09T08:14:58.344Z,20480
2016-04-09T08:15:58.362Z,9904
2016-04-09T08:16:58.412Z,6852
2016-04-09T08:17:58.445Z,6772
2016-04-09T08:18:58.558Z,6728
2016-04-09T08:19:58.529Z,6680
2016-04-09T08:20:58.547Z,6632
2016-04-09T08:21:58.597Z,6596
2016-04-09T08:22:58.631Z,6560
2016-04-09T08:23:58.665Z,6540
2016-04-09T08:24:58.714Z,6544
2016-04-09T08:25:58.749Z,6524
2016-04-09T08:26:58.783Z,6508
2016-04-09T08:27:58.832Z,6484
2016-04-09T08:28:58.866Z,6464
2016-04-09T08:29:58.899Z,6440
2016-04-09T08:30:58.965Z,6412
2016-04-09T08:31:58.983Z,6404
2016-04-09T08:32:59.018Z,6392
2016-04-09T08:33:59.082Z,6356
2016-04-09T08:34:59.132Z,6356
2016-04-09T08:35:59.165Z,6368
2016-04-09T08:36:59.200Z,6352
2016-04-09T08:37:59.062Z,6416
2016-04-09T08:38:59.252Z,11576
2016-04-09T08:39:59.301Z,30112
2016-04-09T08:40:59.367Z,41376
2016-04-09T08:41:59.370Z,36416
2016-04-09T08:42:59.420Z,32768
2016-04-09T08:43:59.453Z,33120
2016-04-09T08:44:59.487Z,36096
2016-04-09T08:45:59.553Z,39648
2016-04-09T08:46:59.570Z,43680
2016-04-09T08:47:59.620Z,46304
2016-04-09T08:48:59.936Z,46080
2016-04-09T08:49:59.689Z,42144
2016-04-09T08:50:59.722Z,37696
2016-04-09T08:51:59.756Z,35360
2016-04-09T08:52:59.806Z,36384
2016-04-09T08:53:59.855Z,38368
2016-04-09T08:54:59.873Z,41600
2016-04-09T08:55:59.908Z,44448
2016-04-09T08:56:59.957Z,47552
2016-04-09T08:57:59.991Z,48704
2016-04-09T08:59:00.056Z,49984
2016-04-09T09:00:00.090Z,49408
2016-04-09T09:01:00.123Z,47680
2016-04-09T09:02:00.158Z,44736
2016-04-09T09:03:00.191Z,41280
2016-04-09T09:04:00.257Z,36736
2016-04-09T09:05:00.275Z,31424
2016-04-09T09:06:00.325Z,31264
2016-04-09T09:07:00.374Z,33568
2016-04-09T09:08:00.269Z,35296
2016-04-09T09:09:00.458Z,22944
2016-04-09T09:10:00.508Z,7416
2016-04-09T09:11:00.542Z,5532
2016-04-09T09:12:00.577Z,5412
2016-04-09T09:13:00.626Z,5344
2016-04-09T09:14:00.675Z,5316
2016-04-09T09:15:00.710Z,5300
2016-04-09T09:16:00.759Z,5292
2016-04-09T09:17:00.808Z,5300
2016-04-09T09:18:00.842Z,5228
2016-04-09T09:19:00.813Z,5244
2016-04-09T09:20:00.941Z,5204
2016-04-09T09:21:00.959Z,5160
2016-04-09T09:22:01.025Z,5192
2016-04-09T09:23:01.059Z,5240
2016-04-09T09:24:01.109Z,5200
2016-04-09T09:25:01.126Z,5144
2016-04-09T09:26:01.192Z,5116
2016-04-09T09:27:01.210Z,5080
2016-04-09T09:28:01.275Z,5064
2016-04-09T09:29:01.294Z,5036
2016-04-09T09:30:01.359Z,5036
2016-04-09T09:31:01.378Z,5068
2016-04-09T09:32:01.427Z,5052
2016-04-09T09:33:01.320Z,5008
2016-04-09T09:34:01.386Z,4908
2016-04-09T09:35:01.544Z,4840
2016-04-09T09:36:01.625Z,4804
2016-04-09T09:37:01.612Z,4812
2016-04-09T09:38:01.677Z,4820
2016-04-09T09:39:01.711Z,4792
2016-04-09T09:40:01.761Z,4796
2016-04-09T09:41:01.779Z,4776
2016-04-09T09:42:01.829Z,4756
2016-04-09T09:43:01.863Z,4708
2016-04-09T09:44:01.896Z,4676
2016-04-09T09:45:01.930Z,4628
2016-04-09T09:46:01.980Z,4604
2016-04-09T09:47:02.014Z,4584
2016-04-09T09:48:02.048Z,4536
2016-04-09T09:49:02.118Z,4484
2016-04-09T09:50:06.936Z,4456
2016-04-09T09:51:02.154Z,4408
2016-04-09T09:52:03.625Z,4376
2016-04-09T09:53:04.624Z,4336
2016-04-09T09:54:02.502Z,4352
2016-04-09T09:55:02.396Z,4376
2016-04-09T09:56:02.352Z,4404
2016-04-09T09:57:02.386Z,4432
2016-04-09T09:58:02.591Z,4460
2016-04-09T09:59:02.469Z,4444
2016-04-09T10:00:02.503Z,4388
2016-04-09T10:01:02.553Z,4368
2016-04-09T10:02:02.791Z,4364
2016-04-09T10:03:02.637Z,4344
2016-04-09T10:04:02.719Z,4308
2016-04-09T10:05:02.689Z,4276
2016-04-09T10:06:02.724Z,4252
2016-04-09T10:07:02.772Z,4208
2016-04-09T10:08:02.839Z,4176
2016-04-09T10:09:02.857Z,4168
2016-04-09T10:10:02.891Z,4168
2016-04-09T10:11:02.925Z,4156
2016-04-09T10:12:02.974Z,4148
2016-04-09T10:13:03.007Z,4132
2016-04-09T10:14:03.026Z,4096
2016-04-09T10:15:03.092Z,4032
2016-04-09T10:16:03.141Z,3988
2016-04-09T10:17:03.143Z,3960
2016-04-09T10:18:03.178Z,3948
2016-04-09T10:19:03.337Z,3928
2016-04-09T10:20:03.262Z,3908
2016-04-09T10:21:03.311Z,3896
2016-04-09T10:22:03.329Z,3896
2016-04-09T10:23:03.379Z,3912
2016-04-09T10:24:03.412Z,3916
2016-04-09T10:25:03.431Z,3920
2016-04-09T10:26:03.496Z,3932
2016-04-09T10:27:03.531Z,3928
2016-04-09T10:28:03.580Z,3908
2016-04-09T10:29:03.598Z,3892
2016-04-09T10:30:03.647Z,3860
2016-04-09T10:31:03.681Z,3844
2016-04-09T10:32:03.715Z,3832
2016-04-09T10:33:03.750Z,3816
2016-04-09T10:34:03.814Z,3792
2016-04-09T10:35:03.817Z,3760
2016-04-09T10:36:03.867Z,3748
2016-04-09T10:37:03.964Z,3740
2016-04-09T10:38:03.936Z,3740
2016-04-09T10:39:03.828Z,3740
2016-04-09T10:40:04.018Z,3752
2016-04-09T10:41:04.069Z,3776
2016-04-09T10:42:04.086Z,3788
2016-04-09T10:43:04.136Z,3776
2016-04-09T10:44:04.155Z,3764
2016-04-09T10:45:04.204Z,3744
2016-04-09T10:46:04.238Z,3732
2016-04-09T10:47:04.271Z,3740
2016-04-09T10:48:04.321Z,3744
2016-04-09T10:49:04.386Z,3728
2016-04-09T10:50:04.389Z,3724
2016-04-09T10:51:04.439Z,3712
2016-04-09T10:52:04.457Z,3688
2016-04-09T10:53:04.506Z,3672
2016-04-09T10:54:04.540Z,3644
2016-04-09T10:55:04.574Z,3632
2016-04-09T10:56:04.624Z,3620
2016-04-09T10:57:04.643Z,3616
2016-04-09T10:58:06.176Z,3596
2016-04-09T10:59:04.725Z,3576
2016-04-09T11:00:04.759Z,3560
2016-04-09T11:01:04.793Z,3524
2016-04-09T11:02:04.828Z,3492
2016-04-09T11:03:04.862Z,3484
2016-04-09T11:04:04.927Z,3472
2016-04-09T11:05:04.961Z,3484
2016-04-09T11:06:04.978Z,3496
2016-04-09T11:07:05.044Z,3488
2016-04-09T11:08:05.062Z,3476
2016-04-09T11:09:05.097Z,3456
2016-04-09T11:10:05.130Z,3444
2016-04-09T11:11:05.181Z,3440
2016-04-09T11:12:05.213Z,3456
2016-04-09T11:13:05.247Z,3476
2016-04-09T11:14:05.282Z,3504
2016-04-09T11:15:05.316Z,3552
2016-04-09T11:16:05.366Z,3540
2016-04-09T11:17:05.399Z,3512
2016-04-09T11:18:05.433Z,3484
2016-04-09T11:19:05.482Z,3448
2016-04-09T11:20:05.516Z,3424
2016-04-09T11:21:05.535Z,3400
2016-04-09T11:22:05.585Z,3372
2016-04-09T11:23:05.618Z,3344
2016-04-09T11:24:05.668Z,3288
2016-04-09T11:25:05.702Z,3296
2016-04-09T11:26:05.736Z,3296
2016-04-09T11:27:05.770Z,3288
2016-04-09T11:28:05.820Z,3280
2016-04-09T11:29:06.135Z,3276
2016-04-09T11:30:05.887Z,3264
2016-04-09T11:31:05.921Z,3252
2016-04-09T11:32:05.971Z,3228
2016-04-09T11:33:06.004Z,3216
2016-04-09T11:34:06.054Z,3204
2016-04-09T11:35:06.072Z,3188
2016-04-09T11:36:06.123Z,3164
2016-04-09T11:37:06.156Z,3156
2016-04-09T11:38:06.189Z,3144
2016-04-09T11:39:06.224Z,3144
2016-04-09T11:40:06.273Z,3188
2016-04-09T11:41:06.307Z,3240
2016-04-09T11:42:06.357Z,3248
2016-04-09T11:43:06.375Z,3284
2016-04-09T11:44:06.425Z,3292
2016-04-09T11:45:06.458Z,3280
2016-04-09T11:46:06.493Z,3276
2016-04-09T11:47:06.527Z,3288
2016-04-09T11:48:06.576Z,3288
2016-04-09T11:49:06.610Z,3276
2016-04-09T11:50:06.644Z,3236
2016-04-09T11:51:06.677Z,3220
2016-04-09T11:52:06.727Z,3164
2016-04-09T11:53:06.746Z,3088
2016-04-09T11:54:06.639Z,2972
2016-04-09T11:55:06.845Z,3192
2016-04-09T11:56:06.879Z,3184
2016-04-09T11:57:06.912Z,3200
2016-04-09T11:58:06.946Z,3196
2016-04-09T11:59:06.996Z,3152
2016-04-09T12:00:07.031Z,2928
2016-04-09T12:01:07.079Z,2892
2016-04-09T12:02:07.114Z,2740
2016-04-09T12:03:07.148Z,2732
2016-04-09T12:04:07.181Z,3188
2016-04-09T12:05:07.215Z,2752
2016-04-09T12:06:07.265Z,2788
2016-04-09T12:07:07.283Z,2440
2016-04-09T12:08:07.317Z,2452
2016-04-09T12:09:07.383Z,2632
2016-04-09T12:10:07.416Z,3088
2016-04-09T12:11:07.450Z,2980
2016-04-09T12:12:07.484Z,2984
2016-04-09T12:13:07.518Z,2896
2016-04-09T12:14:07.568Z,2856
2016-04-09T12:15:07.602Z,2592
2016-04-09T12:16:07.652Z,2548
2016-04-09T12:17:07.669Z,2524
2016-04-09T12:18:07.719Z,2544
2016-04-09T12:19:07.753Z,2672
2016-04-09T12:20:07.802Z,2768
2016-04-09T12:21:07.821Z,2888
2016-04-09T12:22:07.871Z,2920
2016-04-09T12:23:07.888Z,2908
2016-04-09T12:24:07.938Z,2888
2016-04-09T12:25:07.973Z,2868
2016-04-09T12:26:08.021Z,2876
2016-04-09T12:27:08.071Z,2904
2016-04-09T12:28:08.090Z,2912
2016-04-09T12:29:08.140Z,2920
2016-04-09T12:30:08.173Z,2944
2016-04-09T12:31:08.051Z,3092
2016-04-09T12:32:08.242Z,3332
2016-04-09T12:33:08.291Z,3584
2016-04-09T12:34:08.310Z,4008
2016-04-09T12:35:08.359Z,4044
2016-04-09T12:36:08.393Z,3616
2016-04-09T12:37:08.442Z,3428
2016-04-09T12:38:08.461Z,3272
2016-04-09T12:39:08.511Z,3172
2016-04-09T12:40:08.560Z,3112
2016-04-09T12:41:08.594Z,3088
2016-04-09T12:42:08.643Z,3356
2016-04-09T12:43:08.661Z,3372
2016-04-09T12:44:08.711Z,3360
2016-04-09T12:45:08.589Z,2928
2016-04-09T12:46:08.795Z,2868
2016-04-09T12:47:08.829Z,2856
2016-04-09T12:48:08.863Z,2820
2016-04-09T12:49:08.896Z,2776
2016-04-09T12:50:08.977Z,2768
2016-04-09T12:51:08.980Z,2772
2016-04-09T12:52:09.030Z,2760
2016-04-09T12:53:09.049Z,2764
2016-04-09T12:54:09.098Z,2844
2016-04-09T12:55:09.116Z,2824
2016-04-09T12:56:09.149Z,3048
2016-04-09T12:57:09.262Z,3020
2016-04-09T12:58:09.233Z,3212
2016-04-09T12:59:09.283Z,3140
2016-04-09T13:00:09.301Z,3560
2016-04-09T13:01:09.335Z,3604
2016-04-09T13:02:09.401Z,3540
2016-04-09T13:03:09.418Z,3488
2016-04-09T13:04:09.468Z,3372
2016-04-09T13:05:09.518Z,3244
2016-04-09T13:06:09.552Z,3188
2016-04-09T13:07:09.679Z,3068
2016-04-09T13:08:09.479Z,2840
2016-04-09T13:09:09.653Z,2848
2016-04-09T13:10:09.687Z,2888
2016-04-09T13:11:09.737Z,2980
2016-04-09T13:12:09.787Z,2920
2016-04-09T13:13:09.806Z,2808
2016-04-09T13:14:09.855Z,2828
2016-04-09T13:15:09.889Z,2708
2016-04-09T13:16:09.922Z,2688
2016-04-09T13:17:09.972Z,2388
2016-04-09T13:18:10.005Z,2332
2016-04-09T13:19:10.039Z,2312
2016-04-09T13:20:10.136Z,2324
2016-04-09T13:21:10.124Z,2560
2016-04-09T13:22:10.158Z,2748
2016-04-09T13:23:10.191Z,2824
2016-04-09T13:24:10.241Z,2864
2016-04-09T13:25:10.260Z,2848
2016-04-09T13:26:10.308Z,2836
2016-04-09T13:27:10.343Z,2808
2016-04-09T13:28:10.392Z,2792
2016-04-09T13:29:10.427Z,2780
2016-04-09T13:30:10.460Z,2780
2016-04-09T13:31:10.494Z,2784
2016-04-09T13:32:10.543Z,2776
2016-04-09T13:33:10.562Z,2816
2016-04-09T13:34:10.627Z,2860
2016-04-09T13:35:10.693Z,2856
2016-04-09T13:36:10.696Z,2764
2016-04-09T13:37:10.744Z,2612
2016-04-09T13:38:10.762Z,2612
2016-04-09T13:39:10.812Z,2688
2016-04-09T13:40:10.846Z,2764
2016-04-09T13:41:10.864Z,3016
2016-04-09T13:42:10.914Z,3104
2016-04-09T13:43:10.948Z,2932
2016-04-09T13:44:10.997Z,3212
2016-04-09T13:45:11.032Z,3564
2016-04-09T13:46:11.066Z,3756